Ens, Netherlands
Current Conditions -  °F | °C
As of 11:25 AM on Sunday 25 Jan 2015 (Local Time) from EHDL Reporting Station
Haze Haze  
Wind Chill: 32°   Ceiling: Unl
Heat Index: 37°   Visibility: 4mi
Dew Point: 36°   Wind: 7mph
Humidity: 93%   Direction: 260°W
Pressure: 30.36"   Gusts: NA
Location:  52.64°N, 5.83°E
Report Text: EHDL 251025Z AUTO 26006KT 6000 BR FEW034 SCT040 03/02 Q1028 WHT
Loading
Personal Weather Stations






























Interactive Weather Map New forecast layout! Learn more

10-Day Weather Forecast

Advertisements
Track Severe Weather on mobile